createdAt,value
2018-11-04T00:01:49.413Z,39.10
2018-11-04T00:04:17.420Z,41.70
2018-11-04T00:06:45.507Z,37.33
2018-11-04T00:09:13.617Z,39.73
2018-11-04T00:11:41.715Z,37.60
2018-11-04T00:14:10.204Z,37.40
2018-11-04T00:16:38.296Z,42.57
2018-11-04T00:19:06.434Z,40.60
2018-11-04T00:21:34.516Z,40.27
2018-11-04T00:24:02.826Z,41.23
2018-11-04T00:26:30.886Z,37.43
2018-11-04T00:28:59.019Z,39.57
2018-11-04T00:31:27.088Z,43.50
2018-11-04T00:33:55.180Z,40.73
2018-11-04T00:36:23.356Z,45.07
2018-11-04T00:38:51.448Z,40.33
2018-11-04T00:41:19.551Z,42.17
2018-11-04T00:43:47.738Z,45.20
2018-11-04T00:46:15.873Z,49.00
2018-11-04T00:48:43.960Z,41.87
2018-11-04T00:51:12.057Z,43.83
2018-11-04T00:53:40.160Z,40.57
2018-11-04T00:56:08.259Z,45.50
2018-11-04T00:58:36.345Z,40.67
2018-11-04T01:01:04.458Z,43.17
2018-11-04T01:03:32.548Z,46.50
2018-11-04T01:06:00.651Z,45.43
2018-11-04T01:08:28.736Z,45.17
2018-11-04T01:10:56.836Z,43.97
2018-11-04T01:13:24.919Z,44.93
2018-11-04T01:15:53.010Z,45.37
2018-11-04T01:18:21.092Z,43.37
2018-11-04T01:20:49.199Z,43.73
2018-11-04T01:23:17.420Z,44.73
2018-11-04T01:25:45.513Z,44.53
2018-11-04T01:28:13.597Z,45.80
2018-11-04T01:30:41.694Z,46.03
2018-11-04T01:33:09.774Z,47.67
2018-11-04T01:35:37.859Z,46.77
2018-11-04T01:38:05.954Z,48.07
2018-11-04T01:40:34.044Z,48.23
2018-11-04T01:43:02.140Z,49.80
2018-11-04T01:45:30.226Z,42.97
2018-11-04T01:47:58.315Z,50.47
2018-11-04T01:50:26.398Z,49.40
2018-11-04T01:52:54.490Z,46.77
2018-11-04T01:55:22.572Z,47.80
2018-11-04T01:57:50.674Z,51.50
2018-11-04T02:00:18.753Z,44.17
2018-11-04T02:02:47.304Z,49.27
2018-11-04T02:05:15.771Z,43.57
2018-11-04T02:07:43.864Z,46.70
2018-11-04T02:10:14.187Z,46.33
2018-11-04T02:12:42.288Z,48.57
2018-11-04T02:15:11.646Z,48.17
2018-11-04T02:17:39.823Z,47.63
2018-11-04T02:20:09.181Z,47.10
2018-11-04T02:22:37.508Z,45.90
2018-11-04T02:25:06.496Z,41.97
2018-11-04T02:27:34.602Z,49.43
2018-11-04T02:30:02.691Z,46.80
2018-11-04T02:32:30.783Z,46.67
2018-11-04T02:34:59.078Z,50.40
2018-11-04T02:37:27.168Z,45.17
2018-11-04T02:39:55.244Z,52.50
2018-11-04T02:42:23.336Z,49.93
2018-11-04T02:44:51.473Z,48.33
2018-11-04T02:47:19.690Z,51.10
2018-11-04T02:49:47.784Z,45.23
2018-11-04T02:52:15.891Z,50.77
2018-11-04T02:54:44.003Z,48.93
2018-11-04T02:57:12.094Z,51.17
2018-11-04T02:59:40.200Z,49.93
2018-11-04T03:02:08.332Z,49.87
2018-11-04T03:04:36.394Z,51.20
2018-11-04T03:07:04.766Z,48.87
2018-11-04T03:09:32.872Z,51.73
2018-11-04T03:12:00.963Z,48.13
2018-11-04T03:14:29.068Z,51.70
2018-11-04T03:16:57.220Z,51.07
2018-11-04T03:19:25.328Z,52.40
2018-11-04T03:21:53.460Z,54.47
2018-11-04T03:24:21.568Z,53.53
2018-11-04T03:26:49.667Z,48.27
2018-11-04T03:29:17.783Z,49.20
2018-11-04T03:31:45.877Z,56.77
2018-11-04T03:34:14.064Z,54.53
2018-11-04T03:36:42.193Z,57.13
2018-11-04T03:39:11.027Z,52.67
2018-11-04T03:41:39.123Z,50.33
2018-11-04T03:44:07.249Z,52.03
2018-11-04T03:46:35.950Z,60.40
2018-11-04T03:49:04.039Z,51.93
2018-11-04T03:51:32.138Z,51.17
2018-11-04T03:54:00.233Z,56.10
2018-11-04T03:56:28.311Z,53.47
2018-11-04T03:58:56.399Z,50.87
2018-11-04T04:01:24.528Z,53.03
2018-11-04T04:03:52.633Z,54.03
2018-11-04T04:06:20.725Z,50.73
2018-11-04T04:08:48.840Z,52.00
2018-11-04T04:11:16.929Z,52.43
2018-11-04T04:13:45.013Z,53.93
2018-11-04T04:16:13.107Z,53.53
2018-11-04T04:18:41.192Z,50.37
2018-11-04T04:21:11.033Z,55.50
2018-11-04T04:23:40.330Z,55.27
2018-11-04T04:26:09.631Z,56.27
2018-11-04T04:28:37.726Z,50.03
2018-11-04T04:31:05.831Z,55.57
2018-11-04T04:33:33.917Z,55.33
2018-11-04T04:36:02.047Z,54.20
2018-11-04T04:38:30.126Z,55.97
2018-11-04T04:40:58.225Z,56.10
2018-11-04T04:43:26.327Z,53.70
2018-11-04T04:45:54.433Z,53.40
2018-11-04T04:48:22.524Z,54.57
2018-11-04T04:50:50.632Z,50.23
2018-11-04T04:53:18.752Z,58.53
2018-11-04T04:55:46.863Z,51.57
2018-11-04T04:58:14.950Z,57.20
2018-11-04T05:00:43.065Z,55.00
2018-11-04T05:03:11.158Z,53.40
2018-11-04T05:05:39.262Z,55.90
2018-11-04T05:08:07.353Z,60.67
2018-11-04T05:10:35.469Z,57.83
2018-11-04T05:13:03.713Z,54.60
2018-11-04T05:15:31.810Z,55.60
2018-11-04T05:17:59.912Z,59.13
2018-11-04T05:20:28.020Z,56.27
2018-11-04T05:22:56.108Z,56.20
2018-11-04T05:25:24.264Z,57.47
2018-11-04T05:27:52.354Z,54.30
2018-11-04T05:30:20.451Z,58.40
2018-11-04T05:32:48.561Z,61.70
2018-11-04T05:35:16.657Z,63.20
2018-11-04T05:37:44.764Z,53.93
2018-11-04T05:40:12.856Z,59.97
2018-11-04T05:42:40.964Z,56.37
2018-11-04T05:45:09.376Z,55.13
2018-11-04T05:47:37.505Z,56.97
2018-11-04T05:50:06.029Z,56.00
2018-11-04T05:52:34.420Z,60.03
2018-11-04T05:55:02.691Z,58.83
2018-11-04T05:57:30.792Z,56.63
2018-11-04T05:59:58.878Z,60.20
2018-11-04T06:02:26.973Z,61.37
2018-11-04T06:04:55.059Z,57.07
2018-11-04T06:07:23.157Z,60.80
2018-11-04T06:09:51.241Z,62.47
2018-11-04T06:12:19.478Z,57.57
2018-11-04T06:14:47.558Z,58.60
2018-11-04T06:17:15.656Z,58.10
2018-11-04T06:19:43.736Z,60.17
2018-11-04T06:22:11.836Z,63.30
2018-11-04T06:24:39.912Z,59.90
2018-11-04T06:27:08.053Z,59.47
2018-11-04T06:29:36.103Z,56.10
2018-11-04T06:32:04.388Z,56.10
2018-11-04T06:34:32.485Z,64.00
2018-11-04T06:37:00.565Z,56.50
2018-11-04T06:39:28.662Z,60.07
2018-11-04T06:41:56.750Z,60.87
2018-11-04T06:44:24.864Z,57.13
2018-11-04T06:46:53.002Z,62.20
2018-11-04T06:49:21.076Z,60.73
2018-11-04T06:51:49.167Z,63.63
2018-11-04T06:54:17.268Z,57.90
2018-11-04T06:56:45.361Z,67.30
2018-11-04T06:59:13.474Z,58.87
2018-11-04T07:01:41.604Z,57.87
2018-11-04T07:04:16.894Z,60.07
2018-11-04T07:06:45.178Z,58.00
2018-11-04T07:09:13.885Z,65.00
2018-11-04T07:11:41.980Z,57.73
2018-11-04T07:14:10.231Z,57.13
2018-11-04T07:16:38.337Z,58.03
2018-11-04T07:19:06.582Z,57.53
2018-11-04T07:21:34.950Z,57.67
2018-11-04T07:24:03.560Z,55.23
2018-11-04T07:26:31.655Z,58.47
2018-11-04T07:28:59.745Z,58.73
2018-11-04T07:31:27.848Z,64.07
2018-11-04T07:33:55.948Z,60.23
2018-11-04T07:36:24.157Z,65.40
2018-11-04T07:38:52.251Z,62.83
2018-11-04T07:41:20.873Z,67.60
2018-11-04T07:43:49.239Z,61.93
2018-11-04T07:46:17.733Z,64.53
2018-11-04T07:48:45.880Z,60.27
2018-11-04T07:51:13.977Z,67.63
2018-11-04T07:53:42.077Z,65.10
2018-11-04T07:56:10.334Z,64.77
2018-11-04T07:58:38.424Z,59.30
2018-11-04T08:01:06.961Z,56.43
2018-11-04T08:03:35.492Z,60.90
2018-11-04T08:06:03.852Z,71.13
2018-11-04T08:08:32.069Z,72.17
2018-11-04T08:11:00.159Z,67.10
2018-11-04T08:13:28.265Z,74.40
2018-11-04T08:15:56.340Z,61.87
2018-11-04T08:18:24.429Z,59.60
2018-11-04T08:20:52.524Z,59.77
2018-11-04T08:23:20.611Z,61.73
2018-11-04T08:25:48.706Z,67.77
2018-11-04T08:28:16.874Z,62.57
2018-11-04T08:30:44.962Z,72.23
2018-11-04T08:33:13.042Z,65.27
2018-11-04T08:35:41.351Z,59.27
2018-11-04T08:38:09.240Z,61.13
2018-11-04T08:40:37.331Z,61.50
2018-11-04T08:43:05.584Z,52.33
2018-11-04T08:45:33.648Z,58.63
2018-11-04T08:48:01.720Z,62.47
2018-11-04T08:50:29.808Z,59.77
2018-11-04T08:52:57.911Z,57.20
2018-11-04T08:55:26.041Z,55.00
2018-11-04T08:57:54.143Z,61.60
2018-11-04T09:00:22.359Z,50.60
2018-11-04T09:02:50.540Z,65.87
2018-11-04T09:05:18.601Z,60.30
2018-11-04T09:07:46.723Z,60.90
2018-11-04T09:10:15.977Z,59.70
2018-11-04T09:12:45.097Z,53.70
2018-11-04T09:15:13.452Z,55.13
2018-11-04T09:17:41.608Z,52.07
2018-11-04T09:20:11.950Z,58.23
2018-11-04T09:22:40.647Z,58.17
2018-11-04T09:25:09.636Z,63.60
2018-11-04T09:27:37.840Z,63.50
2018-11-04T09:30:07.395Z,98.80
2018-11-04T09:32:35.567Z,62.33
2018-11-04T09:35:03.776Z,61.03
2018-11-04T09:37:31.889Z,57.10
2018-11-04T09:40:00.084Z,51.10
2018-11-04T09:42:28.192Z,52.50
2018-11-04T09:44:56.288Z,59.87
2018-11-04T09:47:24.396Z,49.53
2018-11-04T09:49:52.548Z,55.27
2018-11-04T09:52:20.632Z,126.97
2018-11-04T09:54:48.788Z,107.97
2018-11-04T09:57:16.883Z,70.80
2018-11-04T09:59:45.111Z,59.63
2018-11-04T10:02:13.191Z,97.07
2018-11-04T10:04:41.290Z,48.17
2018-11-04T10:07:09.433Z,40.20
2018-11-04T10:09:37.460Z,54.97
2018-11-04T10:12:05.572Z,69.20
2018-11-04T10:14:33.695Z,44.33
2018-11-04T10:17:01.860Z,44.53
2018-11-04T10:19:30.066Z,45.17
2018-11-04T10:21:58.531Z,47.23
2018-11-04T10:24:26.569Z,43.37
2018-11-04T10:26:54.658Z,38.37
2018-11-04T10:29:22.982Z,35.33
2018-11-04T10:31:51.065Z,38.87
2018-11-04T10:34:19.159Z,34.27
2018-11-04T10:36:47.414Z,34.20
2018-11-04T10:39:15.559Z,36.03
2018-11-04T10:41:44.076Z,31.43
2018-11-04T10:44:12.187Z,36.90
2018-11-04T10:46:40.288Z,30.77
2018-11-04T10:49:08.531Z,29.20
2018-11-04T10:51:36.575Z,31.53
2018-11-04T10:54:04.689Z,28.87
2018-11-04T10:56:32.786Z,26.13
2018-11-04T10:59:00.892Z,30.37
2018-11-04T11:01:28.997Z,29.70
2018-11-04T11:03:57.099Z,28.43
2018-11-04T11:06:25.199Z,28.67
2018-11-04T11:08:53.301Z,31.03
2018-11-04T11:11:21.424Z,28.30
2018-11-04T11:13:49.517Z,31.50
2018-11-04T11:16:17.627Z,31.00
2018-11-04T11:18:45.721Z,35.77
2018-11-04T11:21:13.832Z,31.83
2018-11-04T11:23:41.929Z,28.83
2018-11-04T11:26:10.040Z,30.40
2018-11-04T11:28:38.139Z,29.70
2018-11-04T11:31:06.252Z,27.30
2018-11-04T11:33:34.351Z,27.17
2018-11-04T11:36:02.475Z,30.77
2018-11-04T11:38:30.565Z,27.67
2018-11-04T11:40:58.672Z,28.10
2018-11-04T11:43:26.769Z,29.43
2018-11-04T11:45:54.903Z,31.93
2018-11-04T11:48:22.994Z,23.33
2018-11-04T11:50:51.099Z,24.20
2018-11-04T11:53:19.193Z,30.03
2018-11-04T11:55:47.366Z,33.97
2018-11-04T11:58:15.473Z,31.87
2018-11-04T12:00:43.583Z,28.73
2018-11-04T12:03:11.700Z,25.30
2018-11-04T12:05:39.804Z,31.07
2018-11-04T12:08:07.906Z,26.27
2018-11-04T12:10:36.002Z,27.70
2018-11-04T12:13:04.127Z,28.70
2018-11-04T12:15:32.471Z,23.47
2018-11-04T12:18:00.577Z,29.83
2018-11-04T12:20:28.671Z,43.87
2018-11-04T12:22:56.782Z,29.77
2018-11-04T12:25:24.881Z,31.10
2018-11-04T12:27:52.996Z,25.37
2018-11-04T12:30:21.090Z,24.40
2018-11-04T12:32:49.191Z,24.40
2018-11-04T12:35:17.362Z,22.60
2018-11-04T12:37:45.436Z,25.07
2018-11-04T12:40:14.056Z,27.60
2018-11-04T12:42:42.167Z,23.60
2018-11-04T12:45:11.837Z,24.83
2018-11-04T12:47:39.971Z,22.90
2018-11-04T12:50:09.137Z,24.47
2018-11-04T12:52:37.248Z,22.63
2018-11-04T12:55:06.147Z,21.17
2018-11-04T12:57:34.630Z,21.30
2018-11-04T13:00:03.003Z,19.70
2018-11-04T13:02:31.109Z,21.60
2018-11-04T13:04:59.208Z,20.53
2018-11-04T13:07:27.316Z,19.13
2018-11-04T13:09:55.417Z,21.13
2018-11-04T13:12:23.527Z,23.37
2018-11-04T13:14:51.617Z,19.80
2018-11-04T13:17:19.724Z,19.33
2018-11-04T13:19:47.825Z,20.33
2018-11-04T13:22:15.919Z,18.70
2018-11-04T13:24:44.028Z,21.47
2018-11-04T13:27:12.205Z,17.87
2018-11-04T13:29:40.229Z,20.07
2018-11-04T13:32:08.328Z,24.27
2018-11-04T13:34:36.432Z,20.27
2018-11-04T13:37:04.532Z,19.53
2018-11-04T13:39:32.640Z,16.80
2018-11-04T13:42:00.736Z,16.23
2018-11-04T13:44:28.854Z,15.40
2018-11-04T13:46:56.960Z,14.67
2018-11-04T13:49:25.153Z,16.37
2018-11-04T13:51:53.156Z,15.87
2018-11-04T13:54:21.259Z,15.27
2018-11-04T13:56:49.358Z,18.07
2018-11-04T13:59:17.467Z,16.73
2018-11-04T14:01:45.560Z,14.53
2018-11-04T14:04:13.669Z,15.40
2018-11-04T14:06:41.758Z,16.57
2018-11-04T14:09:09.950Z,15.83
2018-11-04T14:11:38.057Z,15.67
2018-11-04T14:14:06.295Z,15.10
2018-11-04T14:16:34.480Z,15.20
2018-11-04T14:19:02.726Z,15.93
2018-11-04T14:21:30.866Z,14.23
2018-11-04T14:23:59.247Z,17.30
2018-11-04T14:26:27.245Z,15.37
2018-11-04T14:28:55.450Z,14.63
2018-11-04T14:31:23.551Z,12.97
2018-11-04T14:33:51.656Z,16.53
2018-11-04T14:36:19.753Z,13.80
2018-11-04T14:38:47.853Z,13.53
2018-11-04T14:41:15.953Z,22.53
2018-11-04T14:43:44.092Z,16.67
2018-11-04T14:46:12.191Z,13.63
2018-11-04T14:48:40.288Z,12.77
2018-11-04T14:51:08.485Z,13.20
2018-11-04T14:53:36.582Z,15.00
2018-11-04T14:56:04.985Z,17.77
2018-11-04T14:58:33.277Z,14.13
2018-11-04T15:01:01.491Z,14.33
2018-11-04T15:03:29.592Z,22.40
2018-11-04T15:05:57.653Z,13.47
2018-11-04T15:08:25.796Z,15.53
2018-11-04T15:10:53.902Z,12.53
2018-11-04T15:13:22.041Z,14.20
2018-11-04T15:15:50.102Z,15.37
2018-11-04T15:18:18.205Z,14.97
2018-11-04T15:20:46.289Z,13.97
2018-11-04T15:23:14.388Z,14.83
2018-11-04T15:25:42.490Z,14.53
2018-11-04T15:28:10.585Z,14.67
2018-11-04T15:30:38.673Z,14.80
2018-11-04T15:33:06.775Z,15.40
2018-11-04T15:35:34.874Z,17.70
2018-11-04T15:38:02.989Z,14.87
2018-11-04T15:40:31.137Z,15.30
2018-11-04T15:42:59.182Z,16.43
2018-11-04T15:45:27.283Z,19.70
2018-11-04T15:47:55.383Z,15.70
2018-11-04T15:50:23.468Z,14.17
2018-11-04T15:52:51.563Z,14.33
2018-11-04T15:55:19.727Z,18.67
2018-11-04T15:57:47.870Z,17.83
2018-11-04T16:00:16.174Z,14.87
2018-11-04T16:02:44.417Z,17.83
2018-11-04T16:05:12.608Z,22.37
2018-11-04T16:07:40.693Z,14.03
2018-11-04T16:10:09.690Z,14.37
2018-11-04T16:12:37.992Z,14.37
2018-11-04T16:15:08.063Z,13.70
2018-11-04T16:17:36.219Z,15.60
2018-11-04T16:20:04.542Z,17.33
2018-11-04T16:22:32.623Z,16.47
2018-11-04T16:25:00.828Z,15.30
2018-11-04T16:27:28.912Z,18.50
2018-11-04T16:29:57.012Z,61.60
2018-11-04T16:32:25.181Z,26.97
2018-11-04T16:34:53.270Z,23.07
2018-11-04T16:37:21.423Z,22.47
2018-11-04T16:39:49.514Z,18.23
2018-11-04T16:42:17.864Z,18.87
2018-11-04T16:44:46.189Z,17.87
2018-11-04T16:47:14.287Z,18.20
2018-11-04T16:49:42.390Z,13.00
2018-11-04T16:52:10.488Z,12.10
2018-11-04T16:54:38.582Z,13.20
2018-11-04T16:57:09.239Z,13.13
2018-11-04T16:59:37.926Z,11.93
2018-11-04T17:02:06.502Z,17.43
2018-11-04T17:04:34.692Z,12.77
2018-11-04T17:07:02.863Z,16.20
2018-11-04T17:09:30.991Z,15.37
2018-11-04T17:11:59.083Z,14.50
2018-11-04T17:14:27.338Z,12.93
2018-11-04T17:16:55.512Z,16.57
2018-11-04T17:19:23.696Z,19.47
2018-11-04T17:21:52.254Z,15.60
2018-11-04T17:24:20.350Z,13.70
2018-11-04T17:26:48.483Z,16.27
2018-11-04T17:29:16.600Z,17.63
2018-11-04T17:31:44.775Z,13.93
2018-11-04T17:34:12.946Z,16.13
2018-11-04T17:36:41.081Z,17.57
2018-11-04T17:39:10.854Z,17.17
2018-11-04T17:41:39.187Z,16.40
2018-11-04T17:44:07.940Z,28.97
2018-11-04T17:46:36.411Z,24.23
2018-11-04T17:49:04.599Z,20.07
2018-11-04T17:51:32.691Z,16.57
2018-11-04T17:54:00.941Z,23.03
2018-11-04T17:56:29.204Z,21.40
2018-11-04T17:58:57.371Z,18.63
2018-11-04T18:01:25.540Z,19.00
2018-11-04T18:03:53.624Z,17.07
2018-11-04T18:06:21.776Z,19.30
2018-11-04T18:08:49.934Z,19.73
2018-11-04T18:11:18.030Z,21.83
2018-11-04T18:13:46.170Z,20.40
2018-11-04T18:16:14.263Z,22.27
2018-11-04T18:18:42.573Z,18.63
2018-11-04T18:21:10.712Z,19.37
2018-11-04T18:23:38.794Z,16.97
2018-11-04T18:26:07.124Z,19.33
2018-11-04T18:28:35.170Z,17.93
2018-11-04T18:31:03.577Z,19.13
2018-11-04T18:33:31.659Z,20.73
2018-11-04T18:35:59.814Z,21.07
2018-11-04T18:38:27.921Z,22.07
2018-11-04T18:40:56.010Z,20.13
2018-11-04T18:43:24.096Z,25.17
2018-11-04T18:45:52.257Z,22.03
2018-11-04T18:48:20.349Z,19.33
2018-11-04T18:50:48.484Z,19.23
2018-11-04T18:53:16.580Z,23.00
2018-11-04T18:55:45.546Z,21.03
2018-11-04T18:58:13.591Z,23.67
2018-11-04T19:00:43.438Z,20.67
2018-11-04T19:03:11.592Z,23.30
2018-11-04T19:05:39.742Z,23.67
2018-11-04T19:08:07.920Z,24.67
2018-11-04T19:10:36.005Z,26.90
2018-11-04T19:13:04.131Z,21.00
2018-11-04T19:15:32.257Z,18.50
2018-11-04T19:18:00.403Z,20.43
2018-11-04T19:20:28.448Z,22.80
2018-11-04T19:22:56.547Z,20.77
2018-11-04T19:25:24.632Z,15.80
2018-11-04T19:27:52.836Z,21.17
2018-11-04T19:30:20.920Z,20.43
2018-11-04T19:32:49.019Z,20.20
2018-11-04T19:35:17.896Z,20.73
2018-11-04T19:37:46.077Z,21.83
2018-11-04T19:40:15.316Z,21.17
2018-11-04T19:42:43.541Z,19.77
2018-11-04T19:45:11.523Z,18.67
2018-11-04T19:47:39.947Z,18.43
2018-11-04T19:50:09.933Z,22.73
2018-11-04T19:52:38.039Z,20.43
2018-11-04T19:55:07.214Z,19.97
2018-11-04T19:57:35.319Z,18.73
2018-11-04T20:00:03.591Z,20.63
2018-11-04T20:02:31.703Z,22.13
2018-11-04T20:04:59.935Z,25.87
2018-11-04T20:07:28.210Z,24.00
2018-11-04T20:09:56.522Z,23.37
2018-11-04T20:12:29.983Z,24.37
2018-11-04T20:14:58.064Z,22.27
2018-11-04T20:17:26.168Z,22.67
2018-11-04T20:19:59.856Z,32.07
2018-11-04T20:22:27.818Z,27.13
2018-11-04T20:25:01.378Z,26.57
2018-11-04T20:27:29.473Z,22.10
2018-11-04T20:29:57.552Z,24.33
2018-11-04T20:32:31.020Z,20.73
2018-11-04T20:34:59.095Z,22.27
2018-11-04T20:37:27.184Z,32.40
2018-11-04T20:40:00.727Z,26.93
2018-11-04T20:42:28.905Z,26.43
2018-11-04T20:44:57.085Z,23.03
2018-11-04T20:47:44.220Z,23.87
2018-11-04T20:50:17.708Z,24.03
2018-11-04T20:52:45.797Z,19.30
2018-11-04T20:55:13.871Z,22.20
2018-11-04T20:57:45.748Z,18.27
2018-11-04T21:00:14.350Z,23.23
2018-11-04T21:02:43.039Z,27.03
2018-11-04T21:05:11.032Z,21.30
2018-11-04T21:07:39.134Z,22.57
2018-11-04T21:10:08.662Z,20.60
2018-11-04T21:12:36.611Z,25.27
2018-11-04T21:15:05.250Z,25.67
2018-11-04T21:17:33.333Z,19.20
2018-11-04T21:20:01.430Z,19.80
2018-11-04T21:22:29.522Z,23.40
2018-11-04T21:24:57.614Z,23.20
2018-11-04T21:27:25.809Z,26.77
2018-11-04T21:29:54.106Z,23.80
2018-11-04T21:32:22.067Z,23.57
2018-11-04T21:34:52.920Z,19.60
2018-11-04T21:37:21.005Z,20.33
2018-11-04T21:39:49.102Z,20.97
2018-11-04T21:42:17.255Z,25.53
2018-11-04T21:44:45.358Z,26.20
2018-11-04T21:47:13.422Z,25.23
2018-11-04T21:49:41.523Z,23.13
2018-11-04T21:52:09.593Z,20.87
2018-11-04T21:54:37.812Z,17.83
2018-11-04T21:57:05.941Z,18.77
2018-11-04T21:59:33.993Z,23.47
2018-11-04T22:02:02.078Z,18.77
2018-11-04T22:04:30.216Z,22.70
2018-11-04T22:06:58.227Z,22.97
2018-11-04T22:09:26.335Z,20.23
2018-11-04T22:11:54.419Z,23.80
2018-11-04T22:14:22.520Z,18.00
2018-11-04T22:16:50.599Z,21.40
2018-11-04T22:19:18.788Z,19.47
2018-11-04T22:21:46.871Z,16.73
2018-11-04T22:24:14.979Z,20.33
2018-11-04T22:26:43.058Z,18.10
2018-11-04T22:29:11.152Z,17.93
2018-11-04T22:31:39.234Z,18.47
2018-11-04T22:34:07.986Z,16.90
2018-11-04T22:36:36.159Z,18.00
2018-11-04T22:39:06.071Z,18.60
2018-11-04T22:41:34.190Z,19.73
2018-11-04T22:44:02.461Z,18.37
2018-11-04T22:46:30.539Z,21.40
2018-11-04T22:48:58.630Z,18.47
2018-11-04T22:51:26.713Z,23.63
2018-11-04T22:53:54.914Z,20.83
2018-11-04T22:56:23.039Z,21.13
2018-11-04T22:58:51.086Z,19.13
2018-11-04T23:01:19.185Z,22.07
2018-11-04T23:03:47.265Z,24.63
2018-11-04T23:06:15.342Z,22.13
2018-11-04T23:08:43.454Z,24.07
2018-11-04T23:11:11.568Z,24.77
2018-11-04T23:13:39.657Z,19.37
2018-11-04T23:16:07.742Z,22.13
2018-11-04T23:18:35.842Z,24.70
2018-11-04T23:21:04.026Z,20.50
2018-11-04T23:23:32.111Z,22.23
2018-11-04T23:26:00.213Z,24.80
2018-11-04T23:28:28.292Z,21.27
2018-11-04T23:30:56.611Z,22.00
2018-11-04T23:33:24.630Z,24.17
2018-11-04T23:35:52.722Z,20.77
2018-11-04T23:38:20.806Z,19.67
2018-11-04T23:40:49.075Z,24.80
2018-11-04T23:43:17.156Z,17.50
2018-11-04T23:45:45.252Z,22.77
2018-11-04T23:48:13.379Z,24.97
2018-11-04T23:50:41.471Z,19.50
2018-11-04T23:53:09.543Z,22.00
2018-11-04T23:55:37.631Z,18.70
2018-11-04T23:58:05.986Z,20.93
